Tiempo atmosférico en la estación meteorológica de Sotillo De La Adrada, Ávila (630 m.)



Fecha
DESCASC
Temp. máxima en grados centígrados (hora)
DESCASC
Temp. mínima en grados centígrados (hora)
DESCASC
Temp. media en grados centígrados
DESCASC
Racha de viento máxima en m/sg (hora)
DESCASC
Velocidad máxima media en intervalos de 10 minutos(hora)
DESCASC
Precipitaciones diarias en mm
DESCASC
Precipitaciones de 00:00 a 06:00 en mm
DESCASC
Precipitaciones de 06:00 a 12:00 en mm
DESCASC
Precipitaciones de 12:00 a 18:00 en mm
DESCASC
Precipitaciones de 18:00 a 24:00 en mm
DESCASC
19-05-2019 23.2 (16:30) 5.2 (07:30) 14.2 5.83 (18:40) 2.22 (12:50) 0 0 0 0 0
18-05-2019 19.7 (19:20) 10.1 (06:50) 14.9 9.72 (00:30) 4.17 (00:30) 0 0 0 0 0
17-05-2019 20.1 (16:30) 11.4 (07:50) 15.8 16.11 (00:10) 7.22 (00:10) 0 0 0 0 0
16-05-2019 29.5 (16:50) 15.1 (00:00) 22.3 20.28 (23:30) 9.72 (23:30) 0 0 0 0 0
15-05-2019 32.6 (16:40) 12.7 (00:00) 22.6 7.22 (14:30) 3.06 (15:50) 0 0 0 0 0
14-05-2019 30.4 (17:10) 13.8 (00:00) 22.1 8.61 (10:00) 4.72 (10:00) 0 0 0 0 0
13-05-2019 31.5 (16:50) 10.4 (00:00) 20.9 11.67 (22:10) 5.28 (22:20) 0 0 0 0 0
12-05-2019 30.3 (18:10) 11.9 (07:30) 21.1 10.83 (07:00) 5.83 (05:50) 0 0 0 0 0
11-05-2019 29.2 (16:40) 8.9 (07:20) 19.1 11.11 (22:10) 4.17 (22:10) 0 0 0 0 0
10-05-2019 23.5 (18:00) 14.5 (06:30) 19 10.28 (17:00) 4.17 (17:00) 0.4 0.4 0 0 0

Gráficas

Temp. máximas Temp. mínimas Temp. medias Precipitaciones Rachas de viento máximas Velocidades máximas media en intervalos de 10 minutos

Datos horarios

Fecha y hora oficial Temperatura (ºC) Velocidad del viento (km/h) Dirección del viento Racha (km/h) Dirección de racha Precipitación (mm) Presión (hPa) Tendencia (hPa) Humedad (%)
2019-05-22 23:00:00 19.7 0 Calma 2 Sudeste 0 -- -- 41
2019-05-22 22:00:00 21.4 0 Calma 8 Noroeste 0 -- -- 35
2019-05-22 21:00:00 24.5 3 Oeste 19 Sudoeste 0 -- -- 28
2019-05-22 20:00:00 26 6 Sudoeste 21 Sur 0 -- -- 25
2019-05-22 19:00:00 27.7 7 Sudoeste 24 Oeste 0 -- -- 25
2019-05-22 18:00:00 27.2 9 Sudoeste 27 Oeste 0 -- -- 24
2019-05-22 17:00:00 28.7 7 Sudoeste 22 Sudoeste 0 -- -- 22
2019-05-22 16:00:00 27.7 7 Sur 31 Sudoeste 0 -- -- 23
2019-05-22 15:00:00 28.8 5 Sudeste 23 Sudeste 0 -- -- 24
2019-05-22 14:00:00 26.7 5 Sudoeste 19 Sudoeste 0 -- -- 26
2019-05-22 13:00:00 25.7 3 Este 13 Este 0 -- -- 27
2019-05-22 12:00:00 23.6 2 Sur 11 Este 0 -- -- 33
2019-05-22 11:00:00 21.3 3 Nordeste 17 Este 0 -- -- 37
2019-05-22 10:00:00 19.1 12 Nordeste 22 Nordeste 0 -- -- 42
2019-05-22 09:00:00 16.7 4 Este 13 Este 0 -- -- 48
2019-05-22 08:00:00 14.7 6 Este 18 Sudeste 0 -- -- 49
2019-05-22 07:00:00 14.2 3 Nordeste 12 Este 0 -- -- 49
2019-05-22 06:00:00 15.1 4 Este 23 Este 0 -- -- 46
2019-05-22 05:00:00 16 10 Este 20 Este 0 -- -- 45
2019-05-22 04:00:00 16 9 Nordeste 23 Nordeste 0 -- -- 47
2019-05-22 03:00:00 15.7 10 Nordeste 17 Nordeste 0 -- -- 49
2019-05-22 02:00:00 13.3 2 Oeste 4 Oeste 0 -- -- 56
2019-05-22 01:00:00 14.8 0 Calma 8 Nordeste 0 -- -- 50
2019-05-22 00:00:00 16.1 3 Nordeste 10 Norte 0 -- -- 47
2019-05-21 23:00:00 16.5 0 Calma 3 Este 0 -- -- 47
2019-05-21 22:00:00 18.8 0 Calma 6 Noroeste 0 -- -- 39
2019-05-21 21:00:00 22 3 Oeste 8 Noroeste 0 -- -- 31
2019-05-21 20:00:00 23.5 3 Oeste 10 Oeste 0 -- -- 27
2019-05-21 19:00:00 24.5 3 Noroeste 19 Oeste 0 -- -- 26
2019-05-21 18:00:00 25 6 Noroeste 12 Noroeste 0 -- -- 25
2019-05-21 17:00:00 26.2 3 Este 21 Sur 0 -- -- 23
2019-05-21 16:00:00 25.3 3 Sudeste 14 Sur 0 -- -- 25
2019-05-21 15:00:00 23.8 4 Sudoeste 20 Sur 0 -- -- 27
2019-05-21 14:00:00 24 3 Sudoeste 21 Sudoeste 0 -- -- 28
2019-05-21 13:00:00 23.1 6 Sudoeste 20 Sudoeste 0 -- -- 29
2019-05-21 12:00:00 22.7 4 Este 15 Este 0 -- -- 31
2019-05-21 11:00:00 20.1 4 Sur 12 Sudoeste 0 -- -- 34
2019-05-21 10:00:00 18.8 3 Este 7 Sudeste 0 -- -- 40
2019-05-21 09:00:00 15.2 0 Calma 11 Oeste 0 -- -- 50
2019-05-21 08:00:00 14.2 0 Calma 14 Nordeste 0 -- -- 48
2019-05-21 07:00:00 14.2 6 Nordeste 16 Nordeste 0 -- -- 47
2019-05-21 06:00:00 13.1 3 Noroeste 7 Noroeste 0 -- -- 51
2019-05-21 05:00:00 13.7 0 Calma 6 Noroeste 0 -- -- 51
2019-05-21 04:00:00 14.1 0 Calma 6 Noroeste 0 -- -- 49
2019-05-21 03:00:00 14.5 0 Calma 5 Sur 0 -- -- 46
2019-05-21 02:00:00 14.9 0 Calma 5 Noroeste 0 -- -- 44
2019-05-21 01:00:00 16.3 0 Calma 22 Norte 0 -- -- 40
2019-05-21 00:00:00 18.2 10 Norte 24 Norte 0 -- -- 35
2019-05-20 23:00:00 17.3 0 Calma 8 Nordeste 0 -- -- 40
2019-05-20 22:00:00 18.3 0 Calma 17 Sudoeste 0 -- -- 35
2019-05-20 21:00:00 19.5 5 Oeste 17 Oeste 0 -- -- 31
2019-05-20 20:00:00 20.4 5 Sudoeste 22 Oeste 0 -- -- 28
2019-05-20 19:00:00 21.2 5 Sudoeste 20 Sudoeste 0 -- -- 26
2019-05-20 18:00:00 22.8 4 Sudoeste 19 Sudoeste 0 -- -- 27
2019-05-20 17:00:00 21.8 4 Sudoeste 22 Noroeste 0 -- -- 28
2019-05-20 16:00:00 21.3 5 Sur 15 Este 0 -- -- 26
2019-05-20 15:00:00 22.7 6 Sudeste 17 Sudeste 0 -- -- 26
2019-05-20 14:00:00 21.6 3 Nordeste 15 Sudeste 0 -- -- 29
2019-05-20 13:00:00 19.7 4 Norte 17 Este 0 -- -- 30
2019-05-20 12:00:00 19 0 Calma 15 Nordeste 0 -- -- 35
2019-05-20 11:00:00 17.5 11 Nordeste 25 Nordeste 0 -- -- 39
2019-05-20 10:00:00 15.1 13 Nordeste 28 Este 0 -- -- 43
2019-05-20 09:00:00 13.4 8 Nordeste 18 Nordeste 0 -- -- 47
2019-05-20 08:00:00 10.1 3 Nordeste 14 Norte 0 -- -- 51
2019-05-20 07:00:00 9.7 5 Nordeste 12 Nordeste 0 -- -- 47
2019-05-20 06:00:00 10.6 5 Norte 22 Nordeste 0 -- -- 43
2019-05-20 05:00:00 11.4 10 Nordeste 19 Nordeste 0 -- -- 37
2019-05-20 04:00:00 11.7 12 Nordeste 34 Nordeste 0 -- -- 35
2019-05-20 03:00:00 12.7 6 Nordeste 13 Nordeste 0 -- -- 34
2019-05-20 02:00:00 10.9 2 Noroeste 10 Nordeste 0 -- -- 41
2019-05-20 01:00:00 10.6 0 Calma 8 Norte 0 -- -- 48
2019-05-20 00:00:00 12.7 2 Noroeste 6 Noroeste 0 -- -- 44
2019-05-19 23:00:00 13.3 0 Calma 7 Norte 0 -- -- 43
2019-05-19 22:00:00 16.1 4 Noroeste 9 Oeste 0 -- -- 35
2019-05-19 21:00:00 19.5 4 Oeste 18 Noroeste 0 -- -- 27
2019-05-19 20:00:00 19.7 6 Oeste 12 Oeste 0 -- -- 27
2019-05-19 19:00:00 20.7 6 Noroeste 21 Noroeste 0 -- -- 26
2019-05-19 18:00:00 22 0 Calma 13 Este 0 -- -- 25
2019-05-19 17:00:00 21.7 5 Nordeste 16 Norte 0 -- -- 25
2019-05-19 16:00:00 20.8 3 Este 17 Noroeste 0 -- -- 25
2019-05-19 15:00:00 20.5 4 Sudoeste 14 Noroeste 0 -- -- 26
2019-05-19 14:00:00 18.7 4 Sudeste 12 Sudeste 0 -- -- 29
2019-05-19 13:00:00 17.3 5 Sur 18 Sur 0 -- -- 31
2019-05-19 12:00:00 17.1 7 Sur 17 Sur 0 -- -- 31
2019-05-19 11:00:00 15.6 5 Sur 13 Sudoeste 0 -- -- 36
2019-05-19 10:00:00 14 2 Sur 8 Sur 0 -- -- 43
2019-05-19 09:00:00 11.2 3 Sudeste 6 Sudeste 0 -- -- 56
2019-05-19 08:00:00 6.3 0 Calma 7 Noroeste 0 -- -- 71
2019-05-19 07:00:00 5.3 0 Calma 5 Sudoeste 0 -- -- 67
2019-05-19 06:00:00 6.7 0 Calma 7 Noroeste 0 -- -- 58
2019-05-19 05:00:00 7.5 0 Calma 6 Oeste 0 -- -- 49
2019-05-19 04:00:00 9.6 3 Oeste 10 Oeste 0 -- -- 42
2019-05-19 03:00:00 9.8 2 Sur 9 Norte 0 -- -- 40
2019-05-19 02:00:00 10.4 0 Calma 10 Sudeste 0 -- -- 38
2019-05-19 01:00:00 12 5 Este 13 Este 0 -- -- 35
2019-05-19 00:00:00 14.2 6 Norte 26 Noroeste 0 -- -- 31
2019-05-18 23:00:00 14.6 3 Oeste 27 Noroeste 0 -- -- 30
2019-05-18 22:00:00 15.1 4 Oeste 17 Oeste 0 -- -- 30
2019-05-18 21:00:00 17 5 Sudoeste 25 Noroeste 0 -- -- 27
2019-05-18 20:00:00 18.3 6 Noroeste 27 Noroeste 0 -- -- 26
2019-05-18 19:00:00 18.8 6 Oeste 28 Noroeste 0 -- -- 26
2019-05-18 18:00:00 18.1 7 Noroeste 27 Noroeste 0 -- -- 26
2019-05-18 17:00:00 18 4 Sudoeste 17 Noroeste 0 -- -- 26
2019-05-18 16:00:00 17.8 4 Oeste 23 Noroeste 0 -- -- 26
2019-05-18 15:00:00 18 6 Noroeste 28 Noroeste 0 -- -- 26
2019-05-18 14:00:00 18.4 12 Noroeste 27 Noroeste 0 -- -- 28
2019-05-18 13:00:00 16.8 2 Oeste 24 Noroeste 0 -- -- 29
2019-05-18 12:00:00 15.5 6 Oeste 23 Sudoeste 0 -- -- 29
2019-05-18 11:00:00 14.4 13 Noroeste 29 Oeste 0 -- -- 31
2019-05-18 10:00:00 13.3 2 Nordeste 18 Sur 0 -- -- 35
2019-05-18 09:00:00 11.7 7 Este 14 Sur 0 -- -- 37
2019-05-18 08:00:00 10.6 4 Norte 29 Noroeste 0 -- -- 37
2019-05-18 07:00:00 10.5 0 Calma 27 Oeste 0 -- -- 37
2019-05-18 06:00:00 11.1 3 Sudeste 31 Noroeste 0 -- -- 37
2019-05-18 05:00:00 11.9 6 Noroeste 29 Norte 0 -- -- 36
2019-05-18 04:00:00 12.4 5 Noroeste 26 Noroeste 0 -- -- 36
2019-05-18 03:00:00 12.5 0 Calma 22 Oeste 0 -- -- 37
2019-05-18 02:00:00 13.1 4 Norte 26 Noroeste 0 -- -- 37
2019-05-18 01:00:00 13.5 9 Noroeste 35 Noroeste 0 -- -- 36
2019-05-18 00:00:00 13.7 4 Este 32 Noroeste 0 -- -- 36
2019-05-17 23:00:00 14.6 12 Noroeste 28 Noroeste 0 -- -- 33
2019-05-17 22:00:00 15.1 4 Oeste 21 Noroeste 0 -- -- 30
2019-05-17 21:00:00 16.7 7 Sudoeste 29 Sudoeste 0 -- -- 27
2019-05-17 20:00:00 17.7 8 Oeste 29 Oeste 0 -- -- 27
2019-05-17 19:00:00 19.3 8 Oeste 33 Sudoeste 0 -- -- 26
2019-05-17 18:00:00 19 6 Oeste 37 Noroeste 0 -- -- 27
2019-05-17 17:00:00 18.8 12 Oeste 30 Noroeste 0 -- -- 27
2019-05-17 16:00:00 19 8 Sudoeste 30 Noroeste 0 -- -- 30
2019-05-17 15:00:00 16.9 4 Nordeste 30 Noroeste 0 -- -- 33
2019-05-17 14:00:00 17 4 Sudoeste 34 Oeste 0 -- -- 34
2019-05-17 13:00:00 16.3 8 Oeste 33 Noroeste 0 -- -- 35
2019-05-17 12:00:00 17 12 Noroeste 31 Noroeste 0 -- -- 36
2019-05-17 11:00:00 14.7 5 Oeste 28 Noroeste 0 -- -- 40
2019-05-17 10:00:00 13 9 Sudoeste 25 Sudoeste 0 -- -- 44
2019-05-17 09:00:00 12.6 6 Oeste 35 Sudoeste 0 -- -- 45
2019-05-17 08:00:00 11.5 9 Sudoeste 33 Sudoeste 0 -- -- 45
2019-05-17 07:00:00 11.6 13 Sudoeste 35 Sudoeste 0 -- -- 43
2019-05-17 06:00:00 11.8 10 Sudoeste 35 Sudoeste 0 -- -- 42
2019-05-17 05:00:00 12.1 9 Sudoeste 32 Oeste 0 -- -- 42
2019-05-17 04:00:00 12.8 9 Oeste 33 Oeste 0 -- -- 41
2019-05-17 03:00:00 13.2 12 Oeste 43 Noroeste 0 -- -- 39
2019-05-17 02:00:00 13.8 16 Noroeste 45 Noroeste 0 -- -- 39
2019-05-17 01:00:00 14.8 9 Oeste 58 Noroeste 0 -- -- 39
2019-05-17 00:00:00 15.4 30 Noroeste 73 Noroeste 0 -- -- 37
2019-05-16 23:00:00 16.5 23 Noroeste 48 Norte 0 -- -- 36
2019-05-16 22:00:00 20.5 10 Noroeste 31 Noroeste 0 -- -- 30
2019-05-16 21:00:00 23.2 9 Sudoeste 36 Sudoeste 0 -- -- 29
2019-05-16 20:00:00 25.1 16 Sudoeste 39 Sudoeste 0 -- -- 27
2019-05-16 19:00:00 26.3 8 Sudoeste 39 Oeste 0 -- -- 23
2019-05-16 18:00:00 27.1 7 Oeste 39 Oeste 0 -- -- 25
2019-05-16 17:00:00 28.8 14 Sudoeste 39 Sudoeste 0 -- -- 20
2019-05-16 16:00:00 28.8 10 Sudoeste 33 Oeste 0 -- -- 23
2019-05-16 15:00:00 28.9 8 Sudoeste 26 Sudoeste 0 -- -- 24
2019-05-16 14:00:00 27.8 5 Sudoeste 24 Sudoeste 0 -- -- 25
2019-05-16 13:00:00 25.8 4 Sur 15 Sur 0 -- -- 30
2019-05-16 12:00:00 24.3 6 Sur 16 Sur 0 -- -- 33
2019-05-16 11:00:00 23.6 9 Nordeste 26 Este 0 -- -- 33
2019-05-16 10:00:00 20.7 10 Este 24 Este 0 -- -- 33
2019-05-16 09:00:00 19.5 9 Este 24 Este 0 -- -- 33
2019-05-16 08:00:00 17.3 7 Sudeste 17 Sudeste 0 -- -- 33
2019-05-16 07:00:00 17.2 6 Este 15 Este 0 -- -- 34
2019-05-16 06:00:00 17.7 0 Calma 14 Norte 0 -- -- 37
2019-05-16 05:00:00 17.3 4 Norte 9 Norte 0 -- -- 37
2019-05-16 04:00:00 18.8 5 Norte 11 Norte 0 -- -- 34
2019-05-16 03:00:00 17.1 0 Calma 6 Norte 0 -- -- 34
2019-05-16 02:00:00 18 0 Calma 7 Norte 0 -- -- 31
2019-05-16 01:00:00 18.8 0 Calma 11 Este 0 -- -- 31
2019-05-16 00:00:00 20.6 0 Calma 14 Norte 0 -- -- 26